Time;durP1;ratioP1;P1;durP2;ratioP2;P2;SDS_P1;SDS_P2;PMS_P1;PMS_P2;Temp;Humidity;BMP_temperature;BMP_pressure;BME280_temperature;BME280_humidity;BME280_pressure;Samples;Min_cycle;Max_cycle;Signal;HPM_P1;HPM_P2
2021/06/01 00:00:08;;;;;;;0.50;0.50;;;;;;;10.83;74.35;101018.13;4971663;28;20190;-72
2021/06/01 00:02:34;;;;;;;0.50;0.50;;;;;;;10.80;74.23;101007.00;4971615;28;20178;-72
2021/06/01 00:04:59;;;;;;;0.50;0.50;;;;;;;10.82;74.04;101004.75;4971627;28;20649;-72
2021/06/01 00:07:25;;;;;;;0.70;0.70;;;;;;;10.84;73.60;101013.47;4971611;28;20177;-72
2021/06/01 00:09:50;;;;;;;0.60;0.60;;;;;;;10.61;74.05;101007.84;4971558;28;20655;-72
2021/06/01 00:12:15;;;;;;;0.30;0.30;;;;;;;10.48;75.18;100999.59;4971623;28;20182;-72
2021/06/01 00:14:42;;;;;;;0.60;0.60;;;;;;;10.24;76.01;101000.47;4973000;28;20210;-72
2021/06/01 00:17:07;;;;;;;0.50;0.50;;;;;;;10.22;76.73;101008.16;4974834;28;20264;-72
2021/06/01 00:19:33;;;;;;;0.50;0.50;;;;;;;10.30;76.04;101009.41;4974958;28;20272;-72
2021/06/01 00:21:58;;;;;;;0.40;0.40;;;;;;;10.20;76.47;101004.06;4974908;28;20649;-72
2021/06/01 00:24:23;;;;;;;0.70;0.50;;;;;;;10.10;75.90;101005.81;4975047;28;20642;-72
2021/06/01 00:26:49;;;;;;;0.30;0.30;;;;;;;10.05;76.41;101003.19;4975022;28;20185;-72
2021/06/01 00:29:14;;;;;;;0.50;0.50;;;;;;;10.12;75.99;100998.16;4974870;28;20606;-72
2021/06/01 00:31:40;;;;;;;0.60;0.60;;;;;;;10.09;76.82;101009.66;4974788;28;20178;-72
2021/06/01 00:34:06;;;;;;;0.40;0.40;;;;;;;10.04;76.32;101009.75;4973608;28;20277;-72
2021/06/01 00:36:32;;;;;;;0.60;0.60;;;;;;;9.98;76.79;101005.47;4974769;28;20591;-72
2021/06/01 00:38:57;;;;;;;0.60;0.60;;;;;;;9.90;77.39;101005.31;4974670;28;20177;-72
2021/06/01 00:41:23;;;;;;;0.50;0.50;;;;;;;9.82;78.12;101004.00;4974651;28;20634;-72
2021/06/01 00:43:48;;;;;;;1.90;0.40;;;;;;;9.68;78.25;101003.09;4974904;28;20255;-72
2021/06/01 00:46:13;;;;;;;0.50;0.50;;;;;;;9.58;78.36;100995.88;4974561;28;20228;-72
2021/06/01 00:48:39;;;;;;;0.40;0.33;;;;;;;9.56;78.50;100998.09;4974490;28;20174;-72
2021/06/01 00:51:05;;;;;;;0.63;0.50;;;;;;;9.60;78.11;100995.56;4986733;28;20209;-72
2021/06/01 00:53:30;;;;;;;0.50;0.50;;;;;;;9.59;78.40;101002.94;4993769;28;20185;-72
2021/06/01 00:55:56;;;;;;;1.13;1.03;;;;;;;9.58;78.12;100998.59;4993764;28;20208;-72
2021/06/01 00:58:22;;;;;;;0.53;0.53;;;;;;;9.51;78.41;100998.94;4993735;28;20204;-72
2021/06/01 01:03:22;;;;;;;0.50;0.50;;;;;;;9.45;78.66;100994.66;4993771;28;20543;-72
2021/06/01 01:05:50;;;;;;;0.90;0.90;;;;;;;9.37;79.38;100994.47;4993728;28;20179;-72
2021/06/01 01:11:07;;;;;;;0.70;0.70;;;;;;;9.13;79.73;100989.81;4993873;28;20181;-72
2021/06/01 01:13:42;;;;;;;5.30;2.00;;;;;;;9.18;80.61;100997.13;4993526;28;20564;-72
2021/06/01 01:16:07;;;;;;;0.90;0.50;;;;;;;9.14;81.14;100994.19;4993135;28;20632;-72
2021/06/01 01:18:34;;;;;;;0.37;0.37;;;;;;;9.16;80.64;100997.41;4993350;28;20216;-72
2021/06/01 01:21:15;;;;;;;0.63;0.60;;;;;;;9.27;81.48;101000.06;4993489;28;20176;-72
2021/06/01 01:23:58;;;;;;;0.60;0.47;;;;;;;9.41;81.19;100993.63;4993550;28;20173;-72
2021/06/01 01:26:51;;;;;;;0.60;0.40;;;;;;;9.50;80.32;100991.03;4992624;28;20653;-72
2021/06/01 01:29:22;;;;;;;0.63;0.63;;;;;;;9.53;79.66;100985.81;4993268;28;20182;-72
2021/06/01 01:31:51;;;;;;;0.60;0.60;;;;;;;9.42;79.83;100981.59;4993297;28;20185;-72
2021/06/01 01:34:18;;;;;;;1.33;0.97;;;;;;;9.28;79.71;100985.31;4993173;28;20538;-72
2021/06/01 01:36:46;;;;;;;1.23;1.13;;;;;;;9.19;80.86;100985.13;4992891;28;20204;-71
2021/06/01 01:39:13;;;;;;;1.90;1.80;;;;;;;9.08;81.01;100991.78;4993068;28;20177;-72
2021/06/01 01:41:40;;;;;;;3.70;1.93;;;;;;;9.00;80.83;100995.13;4993071;28;20252;-72
2021/06/01 01:44:10;;;;;;;1.90;1.80;;;;;;;8.91;81.16;100994.94;4993020;28;20193;-74
2021/06/01 01:49:11;;;;;;;1.30;1.20;;;;;;;8.77;83.94;100991.25;4992720;28;20189;-72
2021/06/01 01:51:43;;;;;;;1.23;1.13;;;;;;;8.86;82.81;100992.25;4992838;28;20235;-72
2021/06/01 01:54:14;;;;;;;1.23;1.13;;;;;;;8.91;83.10;100995.75;4992773;28;20205;-72
2021/06/01 01:56:46;;;;;;;1.80;1.70;;;;;;;8.90;83.36;100982.41;4992618;28;20640;-71
2021/06/01 01:59:13;;;;;;;1.20;1.10;;;;;;;8.95;83.68;100985.06;4992690;28;20427;-71
2021/06/01 02:01:42;;;;;;;1.90;1.77;;;;;;;9.06;83.86;100985.81;4992747;28;20189;-72
2021/06/01 02:04:09;;;;;;;1.70;1.23;;;;;;;9.10;83.47;100995.03;4992781;28;20177;-72
2021/06/01 02:06:34;;;;;;;1.40;1.30;;;;;;;9.11;82.67;100992.03;4992686;28;20838;-72
2021/06/01 02:08:59;;;;;;;1.47;1.10;;;;;;;9.18;82.41;100987.03;4992640;28;20184;-72
2021/06/01 02:11:25;;;;;;;1.37;1.27;;;;;;;9.25;82.84;100990.22;4992759;28;20637;-72
2021/06/01 02:13:54;;;;;;;2.13;1.30;;;;;;;9.27;82.16;100992.69;4992499;28;20197;-72
2021/06/01 02:16:21;;;;;;;0.80;0.80;;;;;;;9.13;81.85;100989.00;4992551;28;20300;-72
2021/06/01 02:18:48;;;;;;;1.13;1.03;;;;;;;9.02;82.31;100982.03;4992728;28;20177;-72
2021/06/01 02:21:22;;;;;;;1.03;1.00;;;;;;;8.94;83.10;100978.81;4992979;28;20260;-72
2021/06/01 02:23:57;;;;;;;1.00;1.00;;;;;;;8.85;82.97;100980.56;4992731;28;20640;-71
2021/06/01 02:26:34;;;;;;;1.20;1.10;;;;;;;8.81;82.94;100967.78;4992757;28;20183;-71
2021/06/01 02:29:08;;;;;;;1.63;1.10;;;;;;;8.93;82.90;100971.75;4991496;28;20181;-71
2021/06/01 02:31:37;;;;;;;1.73;1.10;;;;;;;9.10;83.08;100970.50;4992737;28;20176;-70
2021/06/01 02:34:06;;;;;;;1.23;1.07;;;;;;;9.21;83.41;100974.75;4992953;28;20602;-71
2021/06/01 02:36:34;;;;;;;1.33;1.23;;;;;;;9.23;82.06;100965.16;4992578;28;20539;-71
2021/06/01 02:39:00;;;;;;;1.13;0.67;;;;;;;9.30;82.29;100966.75;4992715;28;20676;-72
2021/06/01 02:41:25;;;;;;;0.80;0.80;;;;;;;9.33;81.36;100963.44;4992733;28;20235;-72
2021/06/01 02:43:51;;;;;;;0.87;0.87;;;;;;;9.21;81.31;100963.84;4992862;28;20622;-72
2021/06/01 02:46:18;;;;;;;0.83;0.83;;;;;;;8.89;81.58;100969.88;4992854;28;20185;-72
2021/06/01 02:48:44;;;;;;;1.27;0.73;;;;;;;8.96;82.04;100964.91;4992815;28;20177;-72
2021/06/01 02:51:16;;;;;;;0.83;0.70;;;;;;;9.23;81.05;100969.81;4992742;28;20173;-72
2021/06/01 02:53:47;;;;;;;0.80;0.80;;;;;;;9.22;80.60;100962.72;4992843;28;20178;-71
2021/06/01 02:56:15;;;;;;;0.77;0.77;;;;;;;9.30;80.81;100967.56;4992988;28;20256;-72
2021/06/01 02:58:45;;;;;;;1.23;0.93;;;;;;;9.36;80.83;100963.66;4992860;28;20174;-72
2021/06/01 03:01:16;;;;;;;0.93;0.93;;;;;;;9.28;80.68;100964.31;4993062;28;20207;-72
2021/06/01 03:03:44;;;;;;;1.23;1.07;;;;;;;9.25;80.62;100960.22;4992762;28;20181;-72
2021/06/01 03:06:10;;;;;;;0.87;0.87;;;;;;;9.25;80.26;100956.69;4993321;28;20201;-72
2021/06/01 03:08:35;;;;;;;0.70;0.70;;;;;;;9.18;80.57;100957.06;4993028;28;20181;-72
2021/06/01 03:11:03;;;;;;;0.80;0.80;;;;;;;9.11;81.06;100956.59;4992959;28;20184;-72
2021/06/01 03:13:29;;;;;;;1.60;1.50;;;;;;;9.02;81.07;100958.31;4992675;28;20197;-70
2021/06/01 03:15:54;;;;;;;0.80;0.73;;;;;;;8.87;81.07;100948.38;4992056;28;20180;-72
2021/06/01 03:18:21;;;;;;;0.70;0.70;;;;;;;8.71;81.46;100946.91;4973320;28;20212;-72
2021/06/01 03:20:47;;;;;;;1.03;0.97;;;;;;;8.76;82.29;100952.28;4973524;28;20178;-72
2021/06/01 03:23:13;;;;;;;0.83;0.83;;;;;;;8.76;81.80;100946.84;4973618;28;20181;-73
2021/06/01 03:25:40;;;;;;;0.87;0.87;;;;;;;8.73;81.60;100952.88;4973696;28;20166;-72
2021/06/01 03:28:06;;;;;;;0.87;0.80;;;;;;;8.71;82.08;100949.63;4973639;28;20508;-71
2021/06/01 03:30:33;;;;;;;0.57;0.57;;;;;;;8.73;82.31;100944.69;4973986;28;20185;-72
2021/06/01 03:32:59;;;;;;;1.17;0.90;;;;;;;8.75;83.05;100939.78;4972175;28;20178;-72
2021/06/01 03:35:25;;;;;;;0.87;0.87;;;;;;;8.83;83.61;100944.63;4973501;28;20185;-73
2021/06/01 03:37:51;;;;;;;0.77;0.77;;;;;;;8.97;83.40;100946.63;4973327;28;20205;-73
2021/06/01 03:40:17;;;;;;;0.97;0.67;;;;;;;9.09;82.59;100945.13;4973644;28;20389;-70
2021/06/01 03:42:43;;;;;;;0.67;0.67;;;;;;;9.14;82.34;100942.38;4973925;28;20273;-70
2021/06/01 03:45:09;;;;;;;0.73;0.67;;;;;;;8.90;82.45;100950.53;4972551;28;20297;-72
2021/06/01 03:47:35;;;;;;;0.87;0.73;;;;;;;8.58;84.22;100944.84;4973739;28;20253;-72
2021/06/01 03:50:00;;;;;;;0.70;0.70;;;;;;;8.71;84.27;100952.34;4975866;28;20181;-72
2021/06/01 03:52:25;;;;;;;0.57;0.57;;;;;;;9.06;83.38;100953.09;4976561;28;20170;-73
2021/06/01 03:54:51;;;;;;;1.63;0.90;;;;;;;9.23;82.38;100950.72;4979649;28;20169;-73
2021/06/01 03:57:16;;;;;;;0.77;0.77;;;;;;;9.13;83.08;100942.69;4977622;28;20202;-73
2021/06/01 03:59:42;;;;;;;0.83;0.83;;;;;;;9.36;82.22;100941.03;4975786;28;20253;-73
2021/06/01 04:02:08;;;;;;;0.83;0.83;;;;;;;9.56;81.89;100945.44;4975673;28;20178;-73
2021/06/01 04:04:34;;;;;;;0.87;0.87;;;;;;;9.62;82.18;100945.06;4975391;28;20692;-73
2021/06/01 04:07:00;;;;;;;1.33;0.70;;;;;;;9.75;81.60;100949.00;4975757;28;20178;-73
2021/06/01 04:09:25;;;;;;;0.80;0.80;;;;;;;9.89;81.29;100949.09;4975316;28;20651;-71
2021/06/01 04:11:50;;;;;;;1.17;1.03;;;;;;;10.01;80.60;100942.09;4975310;28;20174;-71
2021/06/01 04:14:18;;;;;;;1.43;1.33;;;;;;;9.84;79.87;100939.88;4975070;28;20190;-71
2021/06/01 04:16:44;;;;;;;1.20;1.10;;;;;;;9.44;81.06;100946.66;4975115;28;20200;-71
2021/06/01 04:19:09;;;;;;;0.83;0.83;;;;;;;9.15;81.27;100948.66;4975093;28;20257;-73
2021/06/01 04:21:35;;;;;;;1.20;0.93;;;;;;;9.22;81.87;100949.09;4975113;28;20180;-74
2021/06/01 04:24:00;;;;;;;1.23;1.00;;;;;;;9.27;81.11;100943.59;4975086;28;20658;-73
2021/06/01 04:26:28;;;;;;;1.40;1.20;;;;;;;9.28;82.00;100942.50;4975046;28;20182;-73
2021/06/01 04:28:54;;;;;;;0.90;0.90;;;;;;;9.37;81.95;100938.00;4974849;28;20182;-73
2021/06/01 04:31:19;;;;;;;1.40;1.30;;;;;;;9.46;81.58;100940.91;4974877;28;20230;-72
2021/06/01 04:33:44;;;;;;;1.00;1.00;;;;;;;9.55;80.58;100947.38;4975051;28;20173;-73
2021/06/01 04:36:10;;;;;;;1.67;1.57;;;;;;;9.67;80.35;100949.66;4974655;28;20174;-72
2021/06/01 04:38:35;;;;;;;1.20;1.10;;;;;;;9.76;79.37;100951.44;4974768;28;20702;-72
2021/06/01 04:41:00;;;;;;;1.20;1.10;;;;;;;10.00;80.38;100948.66;4974704;28;20588;-72
2021/06/01 04:43:26;;;;;;;0.97;0.87;;;;;;;10.25;79.95;100941.22;4974669;28;20174;-72
2021/06/01 04:45:51;;;;;;;1.00;0.90;;;;;;;10.48;78.95;100940.31;4973455;28;20642;-72
2021/06/01 04:48:16;;;;;;;0.83;0.83;;;;;;;10.64;78.32;100943.59;4974592;28;20205;-72
2021/06/01 04:50:42;;;;;;;0.93;0.80;;;;;;;10.73;77.53;100941.81;4974710;28;20178;-71
2021/06/01 04:53:07;;;;;;;1.37;1.10;;;;;;;10.77;78.82;100947.47;4974440;28;20552;-71
2021/06/01 04:55:32;;;;;;;0.83;0.83;;;;;;;10.80;77.36;100944.13;4973218;28;20224;-71
2021/06/01 04:57:58;;;;;;;1.60;1.00;;;;;;;11.04;77.25;100944.78;4974419;28;20223;-71
2021/06/01 05:00:23;;;;;;;0.87;0.87;;;;;;;11.25;76.54;100943.28;4973494;28;20181;-71
2021/06/01 05:02:49;;;;;;;1.63;1.53;;;;;;;11.45;75.11;100941.25;4972826;28;20822;-71
2021/06/01 05:05:14;;;;;;;1.23;0.93;;;;;;;11.57;73.93;100947.84;4974607;28;20174;-71
2021/06/01 05:07:40;;;;;;;1.60;1.50;;;;;;;11.63;73.92;100938.41;4974296;28;20204;-71
2021/06/01 05:10:06;;;;;;;1.80;1.50;;;;;;;11.74;73.96;100946.41;4974460;28;20240;-71
2021/06/01 05:12:32;;;;;;;2.20;1.07;;;;;;;11.79;75.96;100943.56;4974016;28;20185;-71
2021/06/01 05:14:57;;;;;;;0.90;0.90;;;;;;;11.90;75.05;100942.25;4974067;28;20197;-71
2021/06/01 05:17:23;;;;;;;2.63;2.47;;;;;;;12.04;75.27;100947.69;4973967;28;20674;-71
2021/06/01 05:19:48;;;;;;;1.30;1.20;;;;;;;12.15;74.04;100944.41;4974102;28;20657;-71
2021/06/01 05:22:14;;;;;;;1.50;1.40;;;;;;;12.11;72.74;100943.38;4974090;28;20533;-71
2021/06/01 05:24:39;;;;;;;1.20;1.10;;;;;;;12.10;73.66;100938.22;4973901;28;20184;-71
2021/06/01 05:27:06;;;;;;;9.53;1.10;;;;;;;12.07;74.09;100939.66;4973984;28;20174;-71
2021/06/01 05:29:35;;;;;;;1.67;1.37;;;;;;;12.19;75.57;100939.09;4973785;28;20178;-71
2021/06/01 05:34:48;;;;;;;1.13;1.10;;;;;;;12.38;74.98;100950.69;4972232;28;20673;-71
2021/06/01 05:37:13;;;;;;;1.40;1.30;;;;;;;12.42;74.65;100945.41;4973621;28;20201;-71
2021/06/01 05:39:38;;;;;;;1.27;1.17;;;;;;;12.46;74.03;100944.47;4973677;28;20180;-71
2021/06/01 05:42:04;;;;;;;1.10;1.00;;;;;;;12.27;75.11;100938.34;4981502;28;20177;-71
2021/06/01 05:44:30;;;;;;;1.40;1.30;;;;;;;12.32;76.11;100948.41;4993224;28;20697;-71
2021/06/01 05:46:55;;;;;;;1.53;1.43;;;;;;;12.31;75.95;100944.84;4993149;28;20173;-71
2021/06/01 05:49:20;;;;;;;1.27;1.17;;;;;;;12.41;75.37;100949.25;4993169;28;20173;-72
2021/06/01 05:51:46;;;;;;;1.20;1.10;;;;;;;12.34;76.37;100946.97;4992923;28;20181;-71
2021/06/01 05:54:11;;;;;;;1.20;1.13;;;;;;;12.42;76.57;100946.19;4991498;28;20660;-72
2021/06/01 05:56:36;;;;;;;1.90;1.80;;;;;;;12.50;77.22;100953.69;4992746;28;20205;-72
2021/06/01 05:59:04;;;;;;;1.50;1.37;;;;;;;12.65;76.82;100947.03;4992620;28;20192;-72
2021/06/01 06:01:29;;;;;;;1.93;1.33;;;;;;;12.78;75.39;100954.34;4992622;28;20523;-72
2021/06/01 06:03:55;;;;;;;2.07;1.87;;;;;;;12.90;75.53;100947.50;4992851;28;20177;-72
2021/06/01 06:06:21;;;;;;;1.37;1.27;;;;;;;12.99;75.13;100951.06;4992728;28;20182;-72
2021/06/01 06:08:46;;;;;;;2.13;1.93;;;;;;;13.12;74.44;100955.66;4992697;28;20186;-72
2021/06/01 06:11:11;;;;;;;3.60;1.90;;;;;;;13.13;74.42;100954.53;4992512;28;20177;-72
2021/06/01 06:13:37;;;;;;;0.83;0.83;;;;;;;13.25;74.74;100960.28;4979378;28;20189;-72
2021/06/01 06:16:03;;;;;;;2.70;1.50;;;;;;;13.33;73.87;100959.50;4972944;28;20587;-72
2021/06/01 06:18:45;;;;;;;1.50;1.37;;;;;;;13.34;73.32;100963.06;4973097;28;20212;-72
2021/06/01 06:21:11;;;;;;;1.60;1.50;;;;;;;13.50;73.25;100969.72;4973259;28;20217;-73
2021/06/01 06:23:41;;;;;;;2.10;1.47;;;;;;;13.56;73.21;100973.94;4973169;28;20178;-72
2021/06/01 06:26:07;;;;;;;2.43;2.23;;;;;;;13.68;72.82;100970.59;4973310;28;20560;-75
2021/06/01 06:28:33;;;;;;;1.40;1.30;;;;;;;13.83;72.24;100967.38;4972730;28;20275;-77
2021/06/01 06:30:59;;;;;;;2.20;1.47;;;;;;;13.92;71.57;100956.44;4973056;28;20272;-71
2021/06/01 06:33:25;;;;;;;1.50;1.40;;;;;;;14.01;71.06;100965.47;4973236;28;20176;-72
2021/06/01 06:35:51;;;;;;;1.23;1.13;;;;;;;14.13;71.46;100953.84;4972826;28;20182;-73
2021/06/01 06:38:17;;;;;;;1.70;1.50;;;;;;;14.22;71.41;100958.22;4972342;28;20210;-73
2021/06/01 06:40:46;;;;;;;1.63;1.47;;;;;;;14.38;71.09;100960.50;4972991;28;20182;-73
2021/06/01 06:43:11;;;;;;;1.50;1.40;;;;;;;14.54;70.31;100956.94;4972735;28;20331;-72
2021/06/01 06:45:37;;;;;;;1.70;1.60;;;;;;;14.67;68.90;100957.91;4972772;28;20584;-71
2021/06/01 06:48:05;;;;;;;1.40;1.30;;;;;;;14.83;68.22;100958.19;4972605;28;20178;-72
2021/06/01 06:50:32;;;;;;;1.57;1.43;;;;;;;14.95;68.35;100963.03;4986641;28;20273;-72
2021/06/01 06:52:57;;;;;;;10.33;2.23;;;;;;;15.02;67.80;100960.56;4991783;28;20185;-71
2021/06/01 06:55:24;;;;;;;1.63;1.53;;;;;;;15.10;68.21;100956.97;4988979;28;20177;-72
2021/06/01 06:57:50;;;;;;;1.40;1.30;;;;;;;15.19;68.42;100960.53;4990652;28;20567;-72
2021/06/01 07:00:18;;;;;;;1.20;1.10;;;;;;;15.29;69.25;100956.56;4991432;28;20664;-72
2021/06/01 07:02:44;;;;;;;1.53;1.43;;;;;;;15.38;68.35;100962.88;4991075;28;20604;-72
2021/06/01 07:05:12;;;;;;;1.33;1.23;;;;;;;15.45;68.87;100957.63;4991218;28;20181;-72
2021/06/01 07:07:38;;;;;;;1.50;1.40;;;;;;;15.47;68.14;100960.84;4991284;28;20173;-71
2021/06/01 07:10:05;;;;;;;1.30;1.20;;;;;;;15.48;67.25;100962.50;4990947;28;20177;-72
2021/06/01 07:12:30;;;;;;;1.53;1.40;;;;;;;15.58;66.39;100951.09;4991356;28;20505;-72
2021/06/01 07:15:13;;;;;;;1.53;1.43;;;;;;;15.76;65.55;100949.88;4991589;28;20169;-72
2021/06/01 07:17:42;;;;;;;1.47;1.33;;;;;;;15.83;64.40;100945.78;4991522;28;20212;-71
2021/06/01 07:20:09;;;;;;;1.60;1.50;;;;;;;15.90;64.22;100940.53;4991584;28;20176;-73
2021/06/01 07:22:34;;;;;;;1.20;1.10;;;;;;;16.06;63.94;100942.38;4991501;28;20177;-72
2021/06/01 07:25:00;;;;;;;2.67;2.20;;;;;;;16.18;63.88;100941.63;4990651;28;20195;-72
2021/06/01 07:27:26;;;;;;;1.67;1.30;;;;;;;16.49;62.02;100941.22;4991481;28;20264;-72
2021/06/01 07:29:51;;;;;;;1.47;1.37;;;;;;;16.62;62.99;100942.03;4991364;28;20173;-72
2021/06/01 07:32:17;;;;;;;1.83;1.60;;;;;;;16.72;61.76;100943.59;4991612;28;20169;-72
2021/06/01 07:34:42;;;;;;;1.70;1.60;;;;;;;16.85;61.35;100937.78;4992031;28;20177;-72
2021/06/01 07:37:07;;;;;;;1.83;1.70;;;;;;;17.06;59.55;100937.69;4991354;28;20732;-72
2021/06/01 07:39:33;;;;;;;1.43;1.10;;;;;;;17.06;58.79;100932.16;4991309;28;20741;-72
2021/06/01 07:41:58;;;;;;;1.57;1.47;;;;;;;17.09;59.30;100938.97;4990222;28;20545;-72
2021/06/01 07:44:25;;;;;;;2.10;1.40;;;;;;;17.18;58.27;100937.72;4991475;28;20558;-72
2021/06/01 07:46:50;;;;;;;1.40;1.30;;;;;;;17.23;57.63;100934.75;4991901;28;20515;-72
2021/06/01 07:49:16;;;;;;;1.47;1.10;;;;;;;17.33;57.93;100938.19;4990875;28;20176;-72
2021/06/01 07:51:41;;;;;;;2.27;1.83;;;;;;;17.46;57.81;100939.78;4991281;28;20169;-72
2021/06/01 07:54:06;;;;;;;1.57;1.47;;;;;;;17.63;54.83;100945.06;4991254;28;20166;-72
2021/06/01 07:56:33;;;;;;;2.10;1.37;;;;;;;17.92;56.26;100938.50;4989658;28;20300;-72
2021/06/01 07:58:59;;;;;;;1.40;1.03;;;;;;;18.15;53.66;100933.28;4991437;28;20240;-72
2021/06/01 08:01:24;;;;;;;2.03;1.93;;;;;;;18.33;53.22;100931.00;4991357;28;20173;-72
2021/06/01 08:03:50;;;;;;;1.27;1.17;;;;;;;18.31;52.15;100931.38;4991390;28;20606;-72
2021/06/01 08:06:15;;;;;;;1.83;1.23;;;;;;;18.39;53.36;100927.66;4991556;28;20552;-72
2021/06/01 08:08:41;;;;;;;1.00;0.97;;;;;;;18.80;49.74;100925.63;4991202;28;20173;-73
2021/06/01 08:11:06;;;;;;;1.90;1.77;;;;;;;18.74;50.26;100918.75;4991108;28;20203;-72
2021/06/01 08:13:33;;;;;;;1.63;1.20;;;;;;;18.80;49.84;100924.81;4990934;28;20525;-72
2021/06/01 08:16:00;;;;;;;1.00;1.00;;;;;;;18.82;51.71;100917.78;4990979;28;20285;-72
2021/06/01 08:18:28;;;;;;;1.53;1.43;;;;;;;19.00;52.83;100924.59;4989385;28;20205;-72
2021/06/01 08:23:25;;;;;;;1.63;1.40;;;;;;;18.90;43.93;100914.03;4971556;28;20528;-72
2021/06/01 08:25:51;;;;;;;1.23;1.00;;;;;;;18.98;47.67;100913.06;4971611;28;20190;-72
2021/06/01 08:28:16;;;;;;;1.50;1.40;;;;;;;18.91;48.25;100912.84;4971680;28;20178;-72
2021/06/01 08:30:42;;;;;;;1.23;1.13;;;;;;;18.93;49.96;100906.97;4971701;28;20545;-72
2021/06/01 08:33:07;;;;;;;1.23;1.13;;;;;;;18.95;48.82;100911.00;4971483;28;20178;-72
2021/06/01 08:35:33;;;;;;;1.87;1.60;;;;;;;18.83;50.37;100911.09;4973137;28;20177;-72
2021/06/01 08:37:59;;;;;;;1.50;1.40;;;;;;;19.07;51.93;100915.63;4978760;28;20212;-72
2021/06/01 08:40:25;;;;;;;1.90;1.80;;;;;;;19.15;50.77;100914.66;4992531;28;20211;-72
2021/06/01 08:42:51;;;;;;;1.20;1.20;;;;;;;19.28;51.05;100912.59;4994114;28;20180;-72
2021/06/01 08:45:17;;;;;;;3.30;1.30;;;;;;;19.45;50.13;100911.41;4994593;28;20177;-72
2021/06/01 08:47:42;;;;;;;1.10;1.10;;;;;;;19.46;50.55;100911.06;4994040;28;20181;-72
2021/06/01 08:50:11;;;;;;;1.40;1.30;;;;;;;19.50;48.93;100908.38;4994415;28;20633;-72
2021/06/01 08:52:37;;;;;;;1.57;1.47;;;;;;;19.72;48.32;100895.84;4994321;28;20165;-72
2021/06/01 08:55:05;;;;;;;1.00;1.00;;;;;;;19.90;47.39;100897.03;4993935;28;20264;-71
2021/06/01 08:57:33;;;;;;;1.50;1.40;;;;;;;19.66;47.72;100892.53;4994102;28;20201;-72
2021/06/01 08:59:58;;;;;;;1.33;1.23;;;;;;;19.70;48.99;100887.09;4993779;28;20178;-71
2021/06/01 09:02:24;;;;;;;1.30;1.20;;;;;;;19.66;46.92;100897.25;4994137;28;20173;-72
2021/06/01 09:04:57;;;;;;;1.40;1.30;;;;;;;19.88;47.02;100885.50;4983048;28;20205;-72
2021/06/01 09:07:44;;;;;;;1.50;1.40;;;;;;;20.07;47.50;100885.50;4993895;28;20741;-72
2021/06/01 09:10:41;;;;;;;1.40;1.30;;;;;;;20.14;48.20;100885.66;4993573;28;20629;-72
2021/06/01 09:21:46;;;;;;;1.30;1.20;;;;;;;20.03;47.21;100869.94;4952916;29;20218;-72
2021/06/01 09:24:13;;;;;;;2.17;1.37;;;;;;;20.07;46.13;100868.03;4951954;29;20219;-72
2021/06/01 09:27:06;;;;;;;1.77;1.67;;;;;;;20.03;45.95;100865.22;4971874;28;20578;-72
2021/06/01 09:29:34;;;;;;;2.10;1.87;;;;;;;20.29;46.58;100872.06;4993405;28;20276;-72
2021/06/01 09:32:05;;;;;;;1.40;1.30;;;;;;;19.90;47.15;100864.53;4993284;28;20181;-72
2021/06/01 09:34:42;;;;;;;1.07;1.07;;;;;;;20.18;48.18;100869.06;4993199;28;20195;-72
2021/06/01 09:37:20;;;;;;;1.70;1.60;;;;;;;20.40;48.31;100862.78;4993466;28;20293;-72
2021/06/01 09:40:03;;;;;;;1.27;1.20;;;;;;;20.64;49.56;100869.16;4992938;28;20200;-72
2021/06/01 09:42:30;;;;;;;1.83;1.33;;;;;;;20.60;45.44;100862.75;4993288;28;20554;-72
2021/06/01 09:45:03;;;;;;;1.43;1.33;;;;;;;20.70;47.43;100860.19;4992926;28;20177;-72
2021/06/01 09:47:58;;;;;;;1.53;1.43;;;;;;;20.74;44.79;100869.38;4992763;28;20177;-72
2021/06/01 09:50:33;;;;;;;1.50;1.40;;;;;;;20.78;46.00;100870.22;4991687;28;20650;-72
2021/06/01 09:53:08;;;;;;;1.63;1.53;;;;;;;20.82;46.99;100861.94;4993443;28;20636;-72
2021/06/01 09:55:40;;;;;;;1.63;1.53;;;;;;;20.81;46.51;100854.78;4993008;28;20166;-72
2021/06/01 09:58:08;;;;;;;1.77;1.67;;;;;;;20.92;48.15;100858.56;4992621;28;20607;-72
2021/06/01 10:00:36;;;;;;;1.40;1.30;;;;;;;20.90;45.10;100849.00;4991642;28;20509;-72
2021/06/01 10:03:10;;;;;;;1.50;1.40;;;;;;;21.22;46.07;100849.50;4993251;28;20227;-72
2021/06/01 10:05:38;;;;;;;1.33;1.23;;;;;;;21.10;44.89;100847.72;4996498;28;20178;-72
2021/06/01 10:08:27;;;;;;;1.83;1.73;;;;;;;21.13;45.98;100843.44;4995055;28;20173;-72
2021/06/01 10:10:59;;;;;;;1.50;1.40;;;;;;;21.35;46.94;100845.38;4992143;28;20202;-72
2021/06/01 10:13:27;;;;;;;1.63;1.53;;;;;;;21.12;45.12;100839.84;4992083;28;20194;-72
2021/06/01 10:15:57;;;;;;;1.40;1.30;;;;;;;21.52;45.77;100844.03;4992310;28;20504;-72
2021/06/01 10:18:28;;;;;;;1.90;1.80;;;;;;;21.01;45.22;100834.13;4991850;28;20209;-72
2021/06/01 10:20:55;;;;;;;1.60;1.50;;;;;;;21.27;45.09;100830.59;4991931;28;20205;-72
2021/06/01 10:23:28;;;;;;;1.50;1.40;;;;;;;21.01;44.56;100836.91;4991819;28;20596;-72
2021/06/01 10:25:54;;;;;;;1.30;1.20;;;;;;;21.06;44.90;100833.78;4991756;28;20185;-72
2021/06/01 10:28:34;;;;;;;1.50;1.40;;;;;;;21.10;44.88;100829.06;4991797;28;20192;-72
2021/06/01 10:31:01;;;;;;;1.40;1.30;;;;;;;21.46;44.87;100826.06;4991700;28;20213;-72
2021/06/01 10:33:33;;;;;;;1.47;1.37;;;;;;;21.18;44.08;100826.44;4990108;28;20175;-72
2021/06/01 10:36:07;;;;;;;1.60;1.50;;;;;;;21.32;44.27;100815.53;4991030;28;20574;-72
2021/06/01 10:52:12;;;;;;;2.07;1.83;;;;;;;21.37;45.72;100810.47;4991349;28;20181;-72
2021/06/01 10:54:45;;;;;;;1.80;1.70;;;;;;;21.20;44.06;100813.75;4991327;28;20176;-72
2021/06/01 10:57:13;;;;;;;2.00;1.90;;;;;;;21.37;44.42;100807.69;4991508;28;20678;-72
2021/06/01 11:02:16;;;;;;;1.60;1.50;;;;;;;21.61;45.04;100800.06;4991374;28;20177;-72
2021/06/01 11:05:09;;;;;;;1.47;1.37;;;;;;;21.34;44.10;100800.09;4991052;28;20188;-72
2021/06/01 11:07:54;;;;;;;1.60;1.50;;;;;;;21.22;44.70;100796.69;4991179;28;20253;-72
2021/06/01 11:10:46;;;;;;;1.90;1.77;;;;;;;21.54;45.35;100799.94;4990982;28;20642;-72
2021/06/01 11:13:31;;;;;;;1.30;1.10;;;;;;;21.79;44.09;100787.16;4991141;28;20275;-72
2021/06/01 11:15:59;;;;;;;1.63;1.53;;;;;;;21.70;43.47;100783.91;4991211;28;20272;-73
2021/06/01 11:18:33;;;;;;;1.43;1.33;;;;;;;22.05;42.75;100785.47;4990888;28;20216;-73
2021/06/01 11:35:20;;;;;;;2.17;2.00;;;;;;;21.65;44.92;100771.09;4991311;28;20216;-74
2021/06/01 11:40:26;;;;;;;1.83;1.73;;;;;;;22.15;44.91;100768.94;4991364;28;20180;-74
2021/06/01 11:43:21;;;;;;;1.53;1.43;;;;;;;22.24;42.82;100766.63;4989645;28;20188;-73
2021/06/01 11:51:16;;;;;;;1.53;1.43;;;;;;;23.13;44.60;100752.63;4991067;28;20264;-72
2021/06/01 11:53:47;;;;;;;1.70;1.60;;;;;;;23.51;45.63;100756.81;4990891;28;20180;-73
2021/06/01 11:56:13;;;;;;;2.43;1.50;;;;;;;23.66;43.94;100752.13;4990867;28;20169;-73
2021/06/01 12:02:14;;;;;;;1.70;1.50;;;;;;;22.95;41.84;100755.28;4991295;28;20326;-73
2021/06/01 12:13:57;;;;;;;1.57;1.40;;;;;;;22.30;40.78;100739.25;4952918;29;20639;-73
2021/06/01 12:19:11;;;;;;;1.60;1.50;;;;;;;22.45;43.35;100735.41;4980656;28;20220;-73
2021/06/01 12:21:41;;;;;;;4.87;1.80;;;;;;;22.63;42.36;100734.75;4994252;28;20170;-73
2021/06/01 12:24:18;;;;;;;1.70;1.60;;;;;;;22.70;40.88;100729.22;4994095;28;20638;-72
2021/06/01 12:32:29;;;;;;;1.57;1.47;;;;;;;23.80;40.56;100727.03;4970378;28;20606;-72
2021/06/01 12:45:50;;;;;;;1.13;1.07;;;;;;;23.09;39.58;100708.00;4994405;28;20677;-71
2021/06/01 13:40:24;;;;;;;1.23;1.13;;;;;;;24.51;35.87;100656.53;4973463;28;20166;-71
2021/06/01 13:51:27;;;;;;;1.60;1.50;;;;;;;24.36;36.56;100638.19;4973567;28;20260;-71
2021/06/01 13:56:35;;;;;;;1.70;1.60;;;;;;;24.80;36.02;100646.88;4973658;28;20168;-72
2021/06/01 13:59:10;;;;;;;1.87;1.77;;;;;;;24.20;38.54;100641.38;4973360;28;20170;-73
2021/06/01 14:02:07;;;;;;;2.17;1.97;;;;;;;23.34;38.03;100645.97;4973253;28;20158;-73
2021/06/01 15:48:07;;;;;;;2.07;1.97;;;;;;;27.25;33.82;100548.91;4975662;28;20738;-72
2021/06/01 15:51:00;;;;;;;1.73;1.63;;;;;;;26.64;33.02;100551.69;4975711;28;20165;-72